sensor_id;sensor_type;location;lat;lon;timestamp;pressure;altitude;pressure_sealevel;temperature;humidity
63552;BME280;49698;48.072;7.800;2023-03-29T00:00:31;99744.88;;;9.29;62.05
63552;BME280;49698;48.072;7.800;2023-03-29T00:03:01;99743.53;;;9.27;62.08
63552;BME280;49698;48.072;7.800;2023-03-29T00:05:29;99766.06;;;9.26;62.17
63552;BME280;49698;48.072;7.800;2023-03-29T00:08:00;99742.97;;;9.25;62.31
63552;BME280;49698;48.072;7.800;2023-03-29T00:10:30;99756.38;;;9.25;62.48
63552;BME280;49698;48.072;7.800;2023-03-29T00:12:59;99757.47;;;9.24;62.17
63552;BME280;49698;48.072;7.800;2023-03-29T00:15:27;99751.03;;;9.20;62.38
63552;BME280;49698;48.072;7.800;2023-03-29T00:17:57;99738.41;;;9.15;62.77
63552;BME280;49698;48.072;7.800;2023-03-29T00:20:24;99736.81;;;9.14;62.69
63552;BME280;49698;48.072;7.800;2023-03-29T00:22:54;99739.22;;;9.16;63.30
63552;BME280;49698;48.072;7.800;2023-03-29T00:25:22;99737.34;;;9.16;63.04
63552;BME280;49698;48.072;7.800;2023-03-29T00:27:50;99749.13;;;9.15;63.49
63552;BME280;49698;48.072;7.800;2023-03-29T00:30:18;99774.06;;;9.16;63.74
63552;BME280;49698;48.072;7.800;2023-03-29T00:32:46;99790.72;;;9.18;63.55
63552;BME280;49698;48.072;7.800;2023-03-29T00:35:15;99749.13;;;9.15;63.96
63552;BME280;49698;48.072;7.800;2023-03-29T00:37:44;99747.22;;;9.05;64.28
63552;BME280;49698;48.072;7.800;2023-03-29T00:40:13;99726.28;;;8.97;64.10
63552;BME280;49698;48.072;7.800;2023-03-29T00:42:43;99731.66;;;8.92;63.62
63552;BME280;49698;48.072;7.800;2023-03-29T00:45:16;99741.28;;;8.93;63.57
63552;BME280;49698;48.072;7.800;2023-03-29T00:47:45;99732.19;;;8.94;63.46
63552;BME280;49698;48.072;7.800;2023-03-29T00:50:19;99734.09;;;8.99;63.49
63552;BME280;49698;48.072;7.800;2023-03-29T00:52:54;99748.56;;;9.03;62.96
63552;BME280;49698;48.072;7.800;2023-03-29T00:55:25;99715.31;;;9.04;62.71
63552;BME280;49698;48.072;7.800;2023-03-29T00:57:55;99711.28;;;9.01;62.44
63552;BME280;49698;48.072;7.800;2023-03-29T01:00:28;99723.66;;;9.02;62.09
63552;BME280;49698;48.072;7.800;2023-03-29T01:02:58;99719.38;;;9.06;62.30
63552;BME280;49698;48.072;7.800;2023-03-29T01:05:32;99715.31;;;9.09;61.97
63552;BME280;49698;48.072;7.800;2023-03-29T01:08:05;99707.56;;;9.13;61.52
63552;BME280;49698;48.072;7.800;2023-03-29T01:10:38;99705.16;;;9.16;61.61
63552;BME280;49698;48.072;7.800;2023-03-29T01:13:10;99711.06;;;9.18;61.57
63552;BME280;49698;48.072;7.800;2023-03-29T01:15:42;99707.03;;;9.21;61.61
63552;BME280;49698;48.072;7.800;2023-03-29T01:18:14;99714.03;;;9.22;61.54
63552;BME280;49698;48.072;7.800;2023-03-29T01:20:56;99702.22;;;9.23;61.62
63552;BME280;49698;48.072;7.800;2023-03-29T01:26:46;99696.84;;;9.23;62.38
63552;BME280;49698;48.072;7.800;2023-03-29T01:29:23;99695.25;;;9.22;61.92
63552;BME280;49698;48.072;7.800;2023-03-29T01:31:58;99703.53;;;9.20;62.13
63552;BME280;49698;48.072;7.800;2023-03-29T01:34:33;99703.53;;;9.20;62.36
63552;BME280;49698;48.072;7.800;2023-03-29T01:37:06;99692.81;;;9.20;62.33
63552;BME280;49698;48.072;7.800;2023-03-29T01:39:37;99687.47;;;9.20;62.20
63552;BME280;49698;48.072;7.800;2023-03-29T01:42:15;99685.56;;;9.16;62.65
63552;BME280;49698;48.072;7.800;2023-03-29T01:44:53;99684.78;;;9.15;62.43
63552;BME280;49698;48.072;7.800;2023-03-29T01:47:26;99687.72;;;9.14;62.71
63552;BME280;49698;48.072;7.800;2023-03-29T01:50:02;99687.72;;;9.14;62.51
63552;BME280;49698;48.072;7.800;2023-03-29T01:52:35;99688.25;;;9.16;62.58
63552;BME280;49698;48.072;7.800;2023-03-29T01:55:09;99685.56;;;9.16;62.74
63552;BME280;49698;48.072;7.800;2023-03-29T01:57:42;99685.84;;;9.14;62.93
63552;BME280;49698;48.072;7.800;2023-03-29T02:00:20;99675.94;;;9.15;63.14
63552;BME280;49698;48.072;7.800;2023-03-29T02:02:52;99674.56;;;9.12;63.42
63552;BME280;49698;48.072;7.800;2023-03-29T02:05:22;99679.13;;;9.12;63.53
63552;BME280;49698;48.072;7.800;2023-03-29T02:07:55;99678.59;;;9.10;63.95
63552;BME280;49698;48.072;7.800;2023-03-29T02:10:26;99682.91;;;9.11;63.88
63552;BME280;49698;48.072;7.800;2023-03-29T02:12:54;99668.94;;;9.09;63.77
63552;BME280;49698;48.072;7.800;2023-03-29T02:15:25;99668.69;;;9.10;64.07
63552;BME280;49698;48.072;7.800;2023-03-29T02:17:54;99674.84;;;9.11;64.05
63552;BME280;49698;48.072;7.800;2023-03-29T02:20:26;99661.44;;;9.11;63.81
63552;BME280;49698;48.072;7.800;2023-03-29T02:23:02;99676.47;;;9.12;64.22
63552;BME280;49698;48.072;7.800;2023-03-29T02:25:31;99653.13;;;9.12;63.92
63552;BME280;49698;48.072;7.800;2023-03-29T02:27:59;99657.69;;;9.12;63.89
63552;BME280;49698;48.072;7.800;2023-03-29T02:30:35;99655.53;;;9.14;63.93
63552;BME280;49698;48.072;7.800;2023-03-29T02:33:09;99659.84;;;9.15;64.32
63552;BME280;49698;48.072;7.800;2023-03-29T02:35:45;99652.59;;;9.15;64.24
63552;BME280;49698;48.072;7.800;2023-03-29T02:38:15;99650.72;;;9.16;64.35
63552;BME280;49698;48.072;7.800;2023-03-29T02:40:44;99663.56;;;9.14;64.13
63552;BME280;49698;48.072;7.800;2023-03-29T02:43:13;99669.22;;;9.17;63.43
63552;BME280;49698;48.072;7.800;2023-03-29T02:45:44;99653.13;;;9.22;62.65
63552;BME280;49698;48.072;7.800;2023-03-29T02:48:17;99659.56;;;9.31;61.45
63552;BME280;49698;48.072;7.800;2023-03-29T02:50:49;99651.25;;;9.43;60.57
63552;BME280;49698;48.072;7.800;2023-03-29T02:53:21;99648.28;;;9.55;59.53
63552;BME280;49698;48.072;7.800;2023-03-29T02:55:51;99648.28;;;9.60;59.49
63552;BME280;49698;48.072;7.800;2023-03-29T02:58:19;99653.91;;;9.64;59.77
63552;BME280;49698;48.072;7.800;2023-03-29T03:00:57;99645.88;;;9.64;59.75
63552;BME280;49698;48.072;7.800;2023-03-29T03:03:27;99647.75;;;9.63;60.28
63552;BME280;49698;48.072;7.800;2023-03-29T03:05:57;99649.63;;;9.63;60.68
63552;BME280;49698;48.072;7.800;2023-03-29T03:08:28;99653.41;;;9.62;60.97
63552;BME280;49698;48.072;7.800;2023-03-29T03:10:57;99642.13;;;9.60;61.43
63552;BME280;49698;48.072;7.800;2023-03-29T03:13:25;99639.72;;;9.58;61.47
63552;BME280;49698;48.072;7.800;2023-03-29T03:15:53;99638.91;;;9.58;61.63
63552;BME280;49698;48.072;7.800;2023-03-29T03:18:23;99632.19;;;9.55;61.75
63552;BME280;49698;48.072;7.800;2023-03-29T03:20:55;99636.75;;;9.54;61.94
63552;BME280;49698;48.072;7.800;2023-03-29T03:23:23;99639.44;;;9.54;62.08
63552;BME280;49698;48.072;7.800;2023-03-29T03:25:52;99631.41;;;9.54;62.24
63552;BME280;49698;48.072;7.800;2023-03-29T03:28:21;99634.06;;;9.54;62.52
63552;BME280;49698;48.072;7.800;2023-03-29T03:30:50;99636.75;;;9.54;62.83
63552;BME280;49698;48.072;7.800;2023-03-29T03:33:25;99632.47;;;9.53;62.79
63552;BME280;49698;48.072;7.800;2023-03-29T03:36:13;99630.88;;;9.52;63.25
63552;BME280;49698;48.072;7.800;2023-03-29T03:38:42;99638.09;;;9.52;63.04
63552;BME280;49698;48.072;7.800;2023-03-29T03:41:11;99635.69;;;9.50;63.83
63552;BME280;49698;48.072;7.800;2023-03-29T03:43:39;99637.81;;;9.48;63.98
63552;BME280;49698;48.072;7.800;2023-03-29T03:46:09;99634.63;;;9.46;64.35
63552;BME280;49698;48.072;7.800;2023-03-29T03:48:39;99642.69;;;9.46;64.23
63552;BME280;49698;48.072;7.800;2023-03-29T03:51:10;99628.19;;;9.42;64.37
63552;BME280;49698;48.072;7.800;2023-03-29T03:53:39;99631.94;;;9.41;64.13
63552;BME280;49698;48.072;7.800;2023-03-29T03:56:13;99633.81;;;9.41;64.62
63552;BME280;49698;48.072;7.800;2023-03-29T03:59:03;99629.28;;;9.41;64.39
63552;BME280;49698;48.072;7.800;2023-03-29T04:01:39;99636.50;;;9.41;64.11
63552;BME280;49698;48.072;7.800;2023-03-29T04:04:16;99621.22;;;9.41;63.61
63552;BME280;49698;48.072;7.800;2023-03-29T04:07:20;99619.31;;;9.47;62.31
63552;BME280;49698;48.072;7.800;2023-03-29T04:09:56;99620.16;;;9.52;61.75
63552;BME280;49698;48.072;7.800;2023-03-29T04:12:43;99620.94;;;9.58;61.21
63552;BME280;49698;48.072;7.800;2023-03-29T04:15:11;99623.34;;;9.60;60.56
63552;BME280;49698;48.072;7.800;2023-03-29T04:17:46;99621.72;;;9.64;59.99
63552;BME280;49698;48.072;7.800;2023-03-29T04:20:24;99622.78;;;9.68;59.20
63552;BME280;49698;48.072;7.800;2023-03-29T04:22:53;99613.13;;;9.72;58.85
63552;BME280;49698;48.072;7.800;2023-03-29T04:25:21;99619.56;;;9.76;58.03
63552;BME280;49698;48.072;7.800;2023-03-29T04:28:18;99607.72;;;9.82;57.51
63552;BME280;49698;48.072;7.800;2023-03-29T04:30:50;99608.78;;;9.86;56.73
63552;BME280;49698;48.072;7.800;2023-03-29T04:33:29;99607.16;;;9.90;56.66
63552;BME280;49698;48.072;7.800;2023-03-29T04:36:00;99606.34;;;9.95;56.67
63552;BME280;49698;48.072;7.800;2023-03-29T04:38:30;99614.66;;;9.98;55.92
63552;BME280;49698;48.072;7.800;2023-03-29T04:41:01;99611.44;;;10.01;55.64
63552;BME280;49698;48.072;7.800;2023-03-29T04:43:49;99608.50;;;10.03;54.91
63552;BME280;49698;48.072;7.800;2023-03-29T04:46:22;99601.75;;;10.05;54.74
63552;BME280;49698;48.072;7.800;2023-03-29T04:49:10;99607.66;;;10.08;54.17
63552;BME280;49698;48.072;7.800;2023-03-29T04:51:43;99614.09;;;10.12;53.75
63552;BME280;49698;48.072;7.800;2023-03-29T04:54:11;99615.41;;;10.14;53.54
63552;BME280;49698;48.072;7.800;2023-03-29T04:56:59;99623.47;;;10.19;53.37
63552;BME280;49698;48.072;7.800;2023-03-29T04:59:36;99618.34;;;10.23;53.09
63552;BME280;49698;48.072;7.800;2023-03-29T05:02:14;99612.44;;;10.26;52.90
63552;BME280;49698;48.072;7.800;2023-03-29T05:04:45;99617.25;;;10.29;52.45
63552;BME280;49698;48.072;7.800;2023-03-29T05:07:17;99616.19;;;10.30;52.35
63552;BME280;49698;48.072;7.800;2023-03-29T05:09:46;99620.19;;;10.33;52.18
63552;BME280;49698;48.072;7.800;2023-03-29T05:12:14;99620.47;;;10.36;52.08
63552;BME280;49698;48.072;7.800;2023-03-29T05:14:51;99620.44;;;10.41;51.65
63552;BME280;49698;48.072;7.800;2023-03-29T05:17:23;99628.75;;;10.45;51.43
63552;BME280;49698;48.072;7.800;2023-03-29T05:19:57;99627.41;;;10.47;51.52
63552;BME280;49698;48.072;7.800;2023-03-29T05:22:27;99627.94;;;10.49;51.22
63552;BME280;49698;48.072;7.800;2023-03-29T05:24:55;99629.00;;;10.53;50.64
63552;BME280;49698;48.072;7.800;2023-03-29T05:27:23;99618.50;;;10.57;50.28
63552;BME280;49698;48.072;7.800;2023-03-29T05:30:07;99623.03;;;10.62;50.29
63552;BME280;49698;48.072;7.800;2023-03-29T05:32:46;99616.28;;;10.64;50.00
63552;BME280;49698;48.072;7.800;2023-03-29T05:35:17;99620.84;;;10.69;49.79
63552;BME280;49698;48.072;7.800;2023-03-29T05:37:47;99622.69;;;10.73;49.55
63552;BME280;49698;48.072;7.800;2023-03-29T05:40:15;99624.25;;;10.80;49.00
63552;BME280;49698;48.072;7.800;2023-03-29T05:43:16;99616.69;;;10.87;49.08
63552;BME280;49698;48.072;7.800;2023-03-29T05:45:45;99615.03;;;10.91;49.19
63552;BME280;49698;48.072;7.800;2023-03-29T05:48:13;99620.97;;;10.93;49.29
63552;BME280;49698;48.072;7.800;2023-03-29T05:50:45;99624.16;;;10.95;48.81
63552;BME280;49698;48.072;7.800;2023-03-29T05:53:15;99621.22;;;10.96;48.55
63552;BME280;49698;48.072;7.800;2023-03-29T05:55:44;99621.44;;;11.00;48.72
63552;BME280;49698;48.072;7.800;2023-03-29T05:58:17;99633.53;;;11.02;48.71
63552;BME280;49698;48.072;7.800;2023-03-29T06:00:47;99621.69;;;11.04;48.54
63552;BME280;49698;48.072;7.800;2023-03-29T06:03:43;99621.91;;;11.07;48.88
63552;BME280;49698;48.072;7.800;2023-03-29T06:06:12;99616.28;;;11.09;48.66
63552;BME280;49698;48.072;7.800;2023-03-29T06:08:43;99613.03;;;11.12;48.97
63552;BME280;49698;48.072;7.800;2023-03-29T06:11:18;99614.88;;;11.16;48.67
63552;BME280;49698;48.072;7.800;2023-03-29T06:14:06;99614.81;;;11.21;48.96
63552;BME280;49698;48.072;7.800;2023-03-29T06:16:39;99619.88;;;11.28;48.70
63552;BME280;49698;48.072;7.800;2023-03-29T06:19:09;99616.59;;;11.36;48.30
63552;BME280;49698;48.072;7.800;2023-03-29T06:21:39;99616.78;;;11.45;48.16
63552;BME280;49698;48.072;7.800;2023-03-29T06:24:12;99627.72;;;11.54;47.75
63552;BME280;49698;48.072;7.800;2023-03-29T06:26:45;99619.31;;;11.60;47.79
63552;BME280;49698;48.072;7.800;2023-03-29T06:29:13;99622.25;;;11.64;48.03
63552;BME280;49698;48.072;7.800;2023-03-29T06:31:42;99629.47;;;11.68;47.84
63552;BME280;49698;48.072;7.800;2023-03-29T06:34:27;99628.09;;;11.71;47.71
63552;BME280;49698;48.072;7.800;2023-03-29T06:37:21;99636.94;;;11.76;47.36
63552;BME280;49698;48.072;7.800;2023-03-29T06:39:59;99633.94;;;11.83;47.13
63552;BME280;49698;48.072;7.800;2023-03-29T06:42:38;99631.78;;;11.85;47.05
63552;BME280;49698;48.072;7.800;2023-03-29T06:45:25;99634.97;;;11.87;46.94
63552;BME280;49698;48.072;7.800;2023-03-29T06:47:55;99639.78;;;11.90;46.96
63552;BME280;49698;48.072;7.800;2023-03-29T06:50:23;99629.50;;;11.97;46.34
63552;BME280;49698;48.072;7.800;2023-03-29T06:53:12;99626.66;;;12.08;46.35
63552;BME280;49698;48.072;7.800;2023-03-29T06:55:44;99633.28;;;12.20;46.00
63552;BME280;49698;48.072;7.800;2023-03-29T06:58:39;99642.47;;;12.38;45.78
63552;BME280;49698;48.072;7.800;2023-03-29T07:01:23;99634.50;;;12.52;45.33
63552;BME280;49698;48.072;7.800;2023-03-29T07:03:58;99643.25;;;12.63;44.93
63552;BME280;49698;48.072;7.800;2023-03-29T07:06:34;99650.13;;;12.74;44.82
63552;BME280;49698;48.072;7.800;2023-03-29T07:09:05;99651.63;;;12.80;44.68
63552;BME280;49698;48.072;7.800;2023-03-29T07:11:56;99652.97;;;12.83;44.39
63552;BME280;49698;48.072;7.800;2023-03-29T07:14:26;99658.06;;;12.84;44.34
63552;BME280;49698;48.072;7.800;2023-03-29T07:16:56;99647.25;;;12.84;44.40
63552;BME280;49698;48.072;7.800;2023-03-29T07:19:31;99644.88;;;12.83;44.23
63552;BME280;49698;48.072;7.800;2023-03-29T07:22:05;99649.47;;;12.82;44.45
63552;BME280;49698;48.072;7.800;2023-03-29T07:24:43;99660.25;;;12.82;44.55
63552;BME280;49698;48.072;7.800;2023-03-29T07:27:12;99666.22;;;12.79;44.44
63552;BME280;49698;48.072;7.800;2023-03-29T07:29:46;99660.03;;;12.79;44.38
63552;BME280;49698;48.072;7.800;2023-03-29T07:32:16;99657.59;;;12.77;44.15
63552;BME280;49698;48.072;7.800;2023-03-29T07:34:44;99661.41;;;12.76;43.99
63552;BME280;49698;48.072;7.800;2023-03-29T07:37:30;99675.41;;;12.78;43.98
63552;BME280;49698;48.072;7.800;2023-03-29T07:39:59;99680.00;;;12.78;44.01
63552;BME280;49698;48.072;7.800;2023-03-29T07:42:50;99681.31;;;12.80;43.83
63552;BME280;49698;48.072;7.800;2023-03-29T07:45:21;99676.66;;;12.86;43.60
63552;BME280;49698;48.072;7.800;2023-03-29T07:47:58;99680.09;;;12.91;43.35
63552;BME280;49698;48.072;7.800;2023-03-29T07:50:37;99681.84;;;13.01;43.13
63552;BME280;49698;48.072;7.800;2023-03-29T07:53:06;99677.09;;;13.12;42.90
63552;BME280;49698;48.072;7.800;2023-03-29T07:55:34;99681.00;;;13.25;42.86
63552;BME280;49698;48.072;7.800;2023-03-29T07:58:27;99678.34;;;13.38;42.63
63552;BME280;49698;48.072;7.800;2023-03-29T08:00:57;99674.06;;;13.51;42.71
63552;BME280;49698;48.072;7.800;2023-03-29T08:03:45;99683.31;;;13.64;42.46
63552;BME280;49698;48.072;7.800;2023-03-29T08:06:13;99678.84;;;13.73;42.13
63552;BME280;49698;48.072;7.800;2023-03-29T08:08:42;99678.25;;;13.76;41.62
63552;BME280;49698;48.072;7.800;2023-03-29T08:11:14;99676.34;;;13.77;41.41
63552;BME280;49698;48.072;7.800;2023-03-29T08:13:58;99678.16;;;13.81;41.37
63552;BME280;49698;48.072;7.800;2023-03-29T08:16:26;99679.56;;;13.92;41.13
63552;BME280;49698;48.072;7.800;2023-03-29T08:19:03;99683.50;;;14.00;41.23
63552;BME280;49698;48.072;7.800;2023-03-29T08:21:49;99679.81;;;14.10;41.04
63552;BME280;49698;48.072;7.800;2023-03-29T08:24:20;99680.50;;;14.15;40.65
63552;BME280;49698;48.072;7.800;2023-03-29T08:26:55;99679.53;;;14.25;40.51
63552;BME280;49698;48.072;7.800;2023-03-29T08:29:25;99682.53;;;14.37;40.50
63552;BME280;49698;48.072;7.800;2023-03-29T08:31:56;99680.94;;;14.50;39.95
63552;BME280;49698;48.072;7.800;2023-03-29T08:34:24;99670.91;;;14.64;40.03
63552;BME280;49698;48.072;7.800;2023-03-29T08:37:15;99660.06;;;14.78;39.70
63552;BME280;49698;48.072;7.800;2023-03-29T08:39:46;99676.81;;;14.80;39.83
63552;BME280;49698;48.072;7.800;2023-03-29T08:42:45;99666.69;;;14.72;39.64
63552;BME280;49698;48.072;7.800;2023-03-29T08:45:31;99664.19;;;14.62;39.70
63552;BME280;49698;48.072;7.800;2023-03-29T08:48:11;99659.19;;;14.55;39.76
63552;BME280;49698;48.072;7.800;2023-03-29T08:50:49;99659.97;;;14.56;39.88
63552;BME280;49698;48.072;7.800;2023-03-29T08:53:23;99653.88;;;14.64;39.78
63552;BME280;49698;48.072;7.800;2023-03-29T08:56:12;99653.66;;;14.74;39.25
63552;BME280;49698;48.072;7.800;2023-03-29T08:59:16;99653.66;;;14.74;38.92
63552;BME280;49698;48.072;7.800;2023-03-29T09:01:50;99664.88;;;14.81;39.04
63552;BME280;49698;48.072;7.800;2023-03-29T09:04:23;99664.75;;;14.86;39.16
63552;BME280;49698;48.072;7.800;2023-03-29T09:07:13;99664.13;;;14.89;38.76
63552;BME280;49698;48.072;7.800;2023-03-29T09:09:45;99664.94;;;14.90;38.84
63552;BME280;49698;48.072;7.800;2023-03-29T09:12:25;99663.84;;;14.91;38.66
63552;BME280;49698;48.072;7.800;2023-03-29T09:15:04;99648.41;;;14.91;38.63
63552;BME280;49698;48.072;7.800;2023-03-29T09:17:47;99650.19;;;14.96;38.42
63552;BME280;49698;48.072;7.800;2023-03-29T09:20:28;99647.38;;;15.01;38.47
63552;BME280;49698;48.072;7.800;2023-03-29T09:23:07;99659.97;;;15.06;38.12
63552;BME280;49698;48.072;7.800;2023-03-29T09:26:02;99659.09;;;15.10;37.73
63552;BME280;49698;48.072;7.800;2023-03-29T09:28:57;99657.16;;;15.11;38.16
63552;BME280;49698;48.072;7.800;2023-03-29T09:31:31;99655.53;;;15.10;38.03
63552;BME280;49698;48.072;7.800;2023-03-29T09:34:07;99646.34;;;15.11;38.26
63552;BME280;49698;48.072;7.800;2023-03-29T09:36:52;99657.16;;;15.11;37.83
63552;BME280;49698;48.072;7.800;2023-03-29T09:39:21;99651.31;;;15.17;37.93
63552;BME280;49698;48.072;7.800;2023-03-29T09:41:58;99646.47;;;15.28;37.71
63552;BME280;49698;48.072;7.800;2023-03-29T09:44:31;99651.22;;;15.45;37.38
63552;BME280;49698;48.072;7.800;2023-03-29T09:47:08;99651.31;;;15.62;37.44
63552;BME280;49698;48.072;7.800;2023-03-29T09:49:43;99653.84;;;15.81;37.18
63552;BME280;49698;48.072;7.800;2023-03-29T09:52:15;99647.69;;;15.98;37.28
63552;BME280;49698;48.072;7.800;2023-03-29T09:55:00;99653.16;;;16.07;36.94
63552;BME280;49698;48.072;7.800;2023-03-29T09:57:41;99656.69;;;16.07;36.81
63552;BME280;49698;48.072;7.800;2023-03-29T10:02:41;99643.59;;;16.09;36.48
63552;BME280;49698;48.072;7.800;2023-03-29T10:05:18;99631.31;;;16.12;36.54
63552;BME280;49698;48.072;7.800;2023-03-29T10:07:50;99626.53;;;16.09;36.78
63552;BME280;49698;48.072;7.800;2023-03-29T10:10:20;99627.63;;;16.08;36.80
63552;BME280;49698;48.072;7.800;2023-03-29T10:12:51;99624.44;;;16.06;36.75
63552;BME280;49698;48.072;7.800;2023-03-29T10:15:20;99628.25;;;16.05;37.20
63552;BME280;49698;48.072;7.800;2023-03-29T10:17:57;99622.50;;;16.06;37.09
63552;BME280;49698;48.072;7.800;2023-03-29T10:20:28;99621.72;;;16.06;37.11
63552;BME280;49698;48.072;7.800;2023-03-29T10:22:57;99630.19;;;16.04;37.63
63552;BME280;49698;48.072;7.800;2023-03-29T10:25:28;99628.41;;;16.00;37.66
63552;BME280;49698;48.072;7.800;2023-03-29T10:28:02;99634.44;;;15.97;38.06
63552;BME280;49698;48.072;7.800;2023-03-29T10:30:34;99631.25;;;15.95;38.03
63552;BME280;49698;48.072;7.800;2023-03-29T10:33:03;99625.63;;;15.91;38.17
63552;BME280;49698;48.072;7.800;2023-03-29T10:35:37;99617.66;;;15.86;38.52
63552;BME280;49698;48.072;7.800;2023-03-29T10:38:10;99615.88;;;15.81;38.66
63552;BME280;49698;48.072;7.800;2023-03-29T10:40:42;99613.66;;;15.83;38.89
63552;BME280;49698;48.072;7.800;2023-03-29T10:43:12;99615.63;;;15.92;38.76
63552;BME280;49698;48.072;7.800;2023-03-29T10:45:41;99609.28;;;16.05;38.45
63552;BME280;49698;48.072;7.800;2023-03-29T10:48:11;99612.34;;;16.12;38.31
63552;BME280;49698;48.072;7.800;2023-03-29T10:50:47;99599.75;;;16.16;38.48
63552;BME280;49698;48.072;7.800;2023-03-29T10:53:22;99599.13;;;16.19;38.48
63552;BME280;49698;48.072;7.800;2023-03-29T10:55:59;99589.41;;;16.27;38.49
63552;BME280;49698;48.072;7.800;2023-03-29T10:58:50;99596.28;;;16.42;37.87
63552;BME280;49698;48.072;7.800;2023-03-29T11:01:26;99577.97;;;16.56;37.28
63552;BME280;49698;48.072;7.800;2023-03-29T11:04:07;99589.50;;;16.79;37.14
63552;BME280;49698;48.072;7.800;2023-03-29T11:06:46;99579.75;;;17.04;36.59
63552;BME280;49698;48.072;7.800;2023-03-29T11:09:22;99577.50;;;17.23;36.29
63552;BME280;49698;48.072;7.800;2023-03-29T11:12:03;99579.69;;;17.39;35.84
63552;BME280;49698;48.072;7.800;2023-03-29T11:14:46;99571.47;;;17.56;35.89
63552;BME280;49698;48.072;7.800;2023-03-29T11:17:27;99581.66;;;17.68;35.62
63552;BME280;49698;48.072;7.800;2023-03-29T11:20:13;99571.56;;;17.86;35.55
63552;BME280;49698;48.072;7.800;2023-03-29T11:22:48;99572.81;;;17.97;35.33
63552;BME280;49698;48.072;7.800;2023-03-29T11:25:29;99571.38;;;17.91;35.31
63552;BME280;49698;48.072;7.800;2023-03-29T11:28:06;99572.66;;;17.93;35.51
63552;BME280;49698;48.072;7.800;2023-03-29T11:30:41;99567.47;;;18.00;35.35
63552;BME280;49698;48.072;7.800;2023-03-29T11:33:25;99576.72;;;18.08;35.54
63552;BME280;49698;48.072;7.800;2023-03-29T11:36:01;99574.63;;;18.14;35.42
63552;BME280;49698;48.072;7.800;2023-03-29T11:38:34;99574.56;;;18.22;35.54
63552;BME280;49698;48.072;7.800;2023-03-29T11:41:11;99579.63;;;18.32;35.46
63552;BME280;49698;48.072;7.800;2023-03-29T11:43:43;99571.81;;;18.52;35.34
63552;BME280;49698;48.072;7.800;2023-03-29T11:46:16;99573.16;;;18.67;35.32
63552;BME280;49698;48.072;7.800;2023-03-29T11:48:51;99566.13;;;18.87;35.13
63552;BME280;49698;48.072;7.800;2023-03-29T11:51:21;99568.16;;;19.11;35.15
63552;BME280;49698;48.072;7.800;2023-03-29T11:53:57;99557.41;;;19.26;34.83
63552;BME280;49698;48.072;7.800;2023-03-29T11:56:32;99556.88;;;19.33;34.90
63552;BME280;49698;48.072;7.800;2023-03-29T11:59:08;99554.69;;;19.26;34.51
63552;BME280;49698;48.072;7.800;2023-03-29T12:01:41;99562.47;;;19.16;34.70
63552;BME280;49698;48.072;7.800;2023-03-29T12:04:14;99554.03;;;19.09;34.87
63552;BME280;49698;48.072;7.800;2023-03-29T12:06:53;99540.44;;;19.09;35.08
63552;BME280;49698;48.072;7.800;2023-03-29T12:09:28;99536.91;;;19.08;35.19
63552;BME280;49698;48.072;7.800;2023-03-29T12:12:04;99528.28;;;19.06;35.06
63552;BME280;49698;48.072;7.800;2023-03-29T12:14:43;99532.34;;;19.00;35.10
63552;BME280;49698;48.072;7.800;2023-03-29T12:17:16;99530.97;;;18.94;35.44
63552;BME280;49698;48.072;7.800;2023-03-29T12:19:49;99524.94;;;18.88;35.70
63552;BME280;49698;48.072;7.800;2023-03-29T12:22:22;99538.41;;;18.85;35.54
63552;BME280;49698;48.072;7.800;2023-03-29T12:24:52;99525.94;;;18.84;35.72
63552;BME280;49698;48.072;7.800;2023-03-29T12:27:25;99518.03;;;18.91;35.56
63552;BME280;49698;48.072;7.800;2023-03-29T12:30:19;99524.91;;;19.09;35.32
63552;BME280;49698;48.072;7.800;2023-03-29T12:33:07;99523.13;;;19.25;35.44
63552;BME280;49698;48.072;7.800;2023-03-29T12:36:17;99518.13;;;19.40;35.02
63552;BME280;49698;48.072;7.800;2023-03-29T12:39:18;99516.34;;;19.44;35.21
63552;BME280;49698;48.072;7.800;2023-03-29T12:42:13;99509.75;;;19.45;35.72
63552;BME280;49698;48.072;7.800;2023-03-29T12:45:18;99503.94;;;19.46;35.26
63552;BME280;49698;48.072;7.800;2023-03-29T12:47:49;99501.56;;;19.57;35.38
63552;BME280;49698;48.072;7.800;2023-03-29T12:50:24;99503.44;;;19.65;35.44
63552;BME280;49698;48.072;7.800;2023-03-29T12:53:02;99504.09;;;19.62;35.44
63552;BME280;49698;48.072;7.800;2023-03-29T12:55:33;99504.41;;;19.48;35.68
63552;BME280;49698;48.072;7.800;2023-03-29T12:58:05;99509.50;;;19.38;35.84
63552;BME280;49698;48.072;7.800;2023-03-29T13:00:42;99508.81;;;19.28;36.14
63552;BME280;49698;48.072;7.800;2023-03-29T13:03:20;99490.53;;;19.29;35.93
63552;BME280;49698;48.072;7.800;2023-03-29T13:06:01;99485.88;;;19.29;36.16
63552;BME280;49698;48.072;7.800;2023-03-29T13:08:35;99487.47;;;19.30;36.24
63552;BME280;49698;48.072;7.800;2023-03-29T13:11:04;99487.69;;;19.38;36.24
63552;BME280;49698;48.072;7.800;2023-03-29T13:13:36;99482.50;;;19.45;36.16
63552;BME280;49698;48.072;7.800;2023-03-29T13:16:10;99483.63;;;19.56;36.00
63552;BME280;49698;48.072;7.800;2023-03-29T13:18:48;99485.91;;;19.78;36.00
63552;BME280;49698;48.072;7.800;2023-03-29T13:21:22;99486.69;;;20.03;35.70
63552;BME280;49698;48.072;7.800;2023-03-29T13:23:57;99492.22;;;20.19;35.28
63552;BME280;49698;48.072;7.800;2023-03-29T13:26:36;99495.59;;;20.28;35.35
63552;BME280;49698;48.072;7.800;2023-03-29T13:29:22;99490.50;;;20.27;35.36
63552;BME280;49698;48.072;7.800;2023-03-29T13:32:01;99481.53;;;20.26;35.10
63552;BME280;49698;48.072;7.800;2023-03-29T13:34:38;99483.56;;;20.30;35.06
63552;BME280;49698;48.072;7.800;2023-03-29T13:37:27;99478.34;;;20.24;35.18
63552;BME280;49698;48.072;7.800;2023-03-29T13:39:59;99477.22;;;20.13;35.31
63552;BME280;49698;48.072;7.800;2023-03-29T13:42:37;99471.69;;;20.10;35.47
63552;BME280;49698;48.072;7.800;2023-03-29T13:45:14;99477.69;;;20.15;35.59
63552;BME280;49698;48.072;7.800;2023-03-29T13:47:44;99476.50;;;20.28;35.49
63552;BME280;49698;48.072;7.800;2023-03-29T13:50:33;99473.66;;;20.37;35.36
63552;BME280;49698;48.072;7.800;2023-03-29T13:53:05;99473.75;;;20.41;35.26